Station: Busselton Airport  

  Atmospheric Gas Attenuation - ITU Rec 676-11   ----------------- dB/100km -----------------
Date Time Temp RH % AH g/m3 Dew Point Wind Direction Speed kph Gust kph Barometer mB Rainfall Since 9am 24GHz 47GHz 76GHz 122GHz 134GHz 241GHz
01/09 05:30 7.6 100 8.06 7.6 0 0 1023.7 3.2 18.7 27.3 41.2 108.0 99.8 342.6
01/09 05:20 7.4 100 7.96 7.4 0 0 1023.6 3.2 18.5 27.1 40.9 107.1 98.7 338.5
01/09 05:10 7.8 100 8.16 7.8 0 0 1023.5 3.2 18.9 27.4 41.5 108.8 101.0 346.6
01/09 05:00 8.1 100 8.32 8.1 0 0 1023.5 3.2 19.3 27.5 42.1 110.3 102.9 353.2
01/09 04:50 8.3 100 8.43 8.3 0 0 1023.4 3.2 19.5 27.7 42.4 111.2 104.2 357.7
01/09 04:40 8.4 100 8.49 8.4 0 0 1023.3 3.2 19.6 27.7 42.6 111.8 104.9 360.3
01/09 04:30 8.4 100 8.49 8.4 0 0 1023.4 3.2 19.6 27.7 42.6 111.8 104.9 360.3
01/09 04:20 8.6 100 8.6 8.6 0 0 1023.2 3.2 19.8 27.9 43.0 112.8 106.2 364.8
01/09 04:10 8.6 100 8.6 8.6 0 0 1023.1 3.2 19.8 27.9 43.0 112.7 106.1 364.8
01/09 04:00 8.4 100 8.49 8.4 0 0 1023.1 3.2 19.6 27.7 42.6 111.8 104.8 360.2
01/09 03:50 8 100 8.27 8 0 0 1023 3.2 19.2 27.5 41.9 109.8 102.2 351.0
01/09 03:40 7.6 100 8.06 7.6 0 0 1023 3.2 18.7 27.2 41.2 107.9 99.8 342.4
01/09 03:30 7.3 100 7.9 7.3 0 0 1022.9 3.2 18.4 27.0 40.6 106.5 97.9 335.7
01/09 03:20 7.2 100 7.85 7.2 0 0 1022.9 3.2 18.3 27.0 40.5 106.0 97.3 333.7
01/09 03:10 7.5 100 8.01 7.5 0 0 1022.9 3.2 18.6 27.2 41.0 107.5 99.2 340.3
01/09 03:00 7 100 7.75 7 0 0 1023.2 3.2 18.1 26.9 40.2 105.2 96.2 329.7
01/09 02:50 6.8 100 7.65 6.8 0 0 1023.1 3.2 17.9 26.8 39.8 104.3 95.0 325.5
01/09 02:40 6.3 100 7.41 6.3 0 0 1023.1 3.2 17.4 26.5 39.1 102.2 92.2 315.7
01/09 02:30 6.6 100 7.55 6.6 0 0 1023.2 3.2 17.7 26.7 39.5 103.4 93.8 321.4
01/09 02:20 6.4 100 7.46 6.4 0 0 1023.1 3.2 17.5 26.6 39.2 102.7 92.8 317.8
01/09 02:10 6.6 100 7.55 6.6 0 0 1023.1 3.2 17.7 26.7 39.5 103.4 93.8 321.4
01/09 02:00 6.7 100 7.6 6.7 0 0 1023.2 3.2 17.8 26.7 39.7 103.9 94.4 323.5
01/09 01:50 7 100 7.75 7 0 0 1023.2 3.2 18.1 26.9 40.2 105.2 96.2 329.7
01/09 01:40 6.8 100 7.65 6.8 0 0 1023.1 3.2 17.9 26.8 39.8 104.3 95.0 325.5
01/09 01:30 6.7 100 7.6 6.7 0 0 1023.2 3.2 17.8 26.7 39.7 103.9 94.4 323.5
01/09 01:20 6.5 100 7.5 6.5 2 7 1023.3 3.2 17.6 26.6 39.3 103.0 93.3 319.4
01/09 01:10 6.7 100 7.6 6.7 6 7 1023.2 3.2 17.8 26.7 39.7 103.9 94.4 323.5
01/09 01:00 6.8 100 7.65 6.8 6 7 1023.4 3.2 17.9 26.8 39.8 104.3 95.0 325.6
01/09 00:50 7 100 7.75 7 7 9 1023.2 3.2 18.1 26.9 40.2 105.2 96.2 329.7
01/09 00:40 7.2 100 7.85 7.2 7 11 1023.3 3.2 18.3 27.0 40.5 106.1 97.3 333.8
01/09 00:30 7.2 100 7.85 7.2 2 9 1023.4 3.2 18.3 27.0 40.5 106.1 97.4 333.8
01/09 00:20 7.6 100 8.06 7.6 0 0 1023.2 3.2 18.7 27.2 41.2 107.9 99.8 342.4
01/09 00:10 8.4 100 8.49 8.4 0 0 1023.1 3.2 19.6 27.7 42.6 111.8 104.8 360.2
01/09 00:00 8.7 100 8.65 8.7 0 0 1023.3 3.2 19.9 27.9 43.2 113.2 106.7 366.8
31/08 23:50 8.7 100 8.65 8.7 0 0 1023.2 3.2 19.9 27.9 43.2 113.2 106.7 366.8
31/08 23:40 9 100 8.82 9 0 0 1023.2 3.2 20.3 28.1 43.7 114.7 108.7 373.9
31/08 23:30 9.5 100 9.1 9.5 0 0 1023.3 3.2 20.9 28.5 44.7 117.3 112.0 385.5
31/08 23:20 10.2 100 9.52 10.2 0 0 1023.1 3.2 21.7 29.0 46.1 121.1 117.0 403.0
31/08 23:10 10.4 100 9.64 10.4 0 0 1023.2 3.2 22.0 29.1 46.5 122.2 118.5 408.1
31/08 23:00 10.4 99 9.54 10.2 0 0 1023.3 3.2 21.8 28.9 46.1 121.0 117.0 403.1
31/08 22:50 10.6 99 9.66 10.4 0 0 1023.2 3.2 22.0 29.1 46.5 122.1 118.4 408.0
31/08 22:40 10.6 99 9.66 10.4 0 0 1023.3 3.2 22.0 29.1 46.5 122.1 118.4 408.1
31/08 22:30 10.7 99 9.73 10.5 0 0 1023.4 3.2 22.2 29.2 46.7 122.8 119.3 411.1
31/08 22:20 10.8 99 9.79 10.6 0 0 1023.2 3.2 22.3 29.2 46.9 123.3 120.0 413.5
31/08 22:10 10.9 99 9.85 10.7 0 0 1023.1 3.2 22.4 29.3 47.1 123.8 120.7 416.0
31/08 22:00 11 99 9.91 10.8 0 0 1023.1 3 22.5 29.4 47.3 124.4 121.4 418.5
31/08 21:50 11.4 99 10.16 11.2 0 0 1023 3 23.1 29.7 48.2 126.7 124.4 428.9
31/08 21:40 11.3 98 10 11 0 0 1022.9 3 22.7 29.4 47.5 124.9 122.2 421.3
31/08 21:30 11.3 99 10.1 11.1 0 0 1023 3 22.9 29.6 48.0 126.1 123.7 426.4
31/08 21:20 11.3 99 10.1 11.1 0 0 1022.8 3 22.9 29.6 48.0 126.1 123.7 426.4
31/08 21:10 11.3 99 10.1 11.1 0 0 1022.8 3 22.9 29.6 48.0 126.1 123.7 426.4
31/08 21:00 11.3 99 10.1 11.1 4 7 1022.9 3 22.9 29.6 48.0 126.1 123.7 426.4
31/08 20:50 11.4 98 10.06 11.1 7 7 1022.7 3 22.8 29.5 47.7 125.4 122.9 423.8
31/08 20:40 11.4 97 9.96 10.9 7 9 1022.6 3 22.6 29.3 47.3 124.3 121.5 418.7
31/08 20:30 11.5 96 9.92 10.9 9 11 1022.6 3 22.5 29.2 47.0 123.6 120.7 416.1
31/08 20:20 11.5 97 10.02 11 9 11 1022.4 3 22.7 29.4 47.5 124.8 122.1 421.1
31/08 20:10 11.5 96 9.92 10.9 11 13 1022.2 3 22.5 29.2 47.0 123.6 120.7 416.0
31/08 20:00 11.5 95 9.81 10.7 11 15 1022.2 3 22.3 29.0 46.5 122.3 119.1 410.5
31/08 19:50 11.6 94 9.77 10.7 15 19 1022.1 3 22.2 28.9 46.3 121.7 118.4 407.9
31/08 19:40 11.6 94 9.77 10.7 17 24 1022 3 22.2 28.9 46.3 121.7 118.4 407.9
31/08 19:30 11.7 95 9.94 10.9 22 28 1022.1 3 22.6 29.2 47.0 123.5 120.6 415.9
31/08 19:20 11.8 96 10.11 11.2 20 26 1021.9 3 22.9 29.4 47.7 125.3 122.9 423.8
31/08 19:10 12 96 10.23 11.4 20 28 1021.9 3 23.2 29.6 48.1 126.4 124.3 428.8
31/08 19:00 12.3 95 10.32 11.5 22 28 1021.7 3 23.3 29.6 48.3 126.9 125.1 431.6
31/08 18:50 12.2 94 10.14 11.3 22 28 1021.3 3 23.0 29.3 47.5 124.9 122.6 422.9
31/08 18:40 12.3 97 10.53 11.8 22 30 1021.1 3 23.8 30.0 49.2 129.3 128.1 442.0
31/08 18:30 12.6 99 10.95 12.4 26 33 1020.9 3 24.7 30.6 50.8 133.7 133.7 461.5
31/08 18:20 12.8 99 11.09 12.6 28 35 1020.7 3 25.0 30.8 51.3 135.0 135.3 467.4
31/08 18:10 12.9 99 11.16 12.7 22 30 1020.4 3 25.1 30.8 51.5 135.7 136.2 470.3
31/08 18:00 12.9 99 11.16 12.7 22 30 1020.2 3 25.1 30.8 51.5 135.6 136.1 470.2
31/08 17:50 13 99 11.23 12.8 24 32 1020 3 25.3 30.9 51.8 136.3 137.0 473.1
31/08 17:40 13.1 99 11.3 12.9 28 33 1019.7 2.8 25.4 31.0 52.0 136.9 137.8 476.0
31/08 17:30 13.4 99 11.51 13.2 32 39 1019.7 2.8 25.8 31.3 52.7 138.9 140.3 484.9
31/08 17:20 13.5 99 11.58 13.3 35 50 1019.6 2.6 26.0 31.3 53.0 139.5 141.2 487.9
31/08 17:10 14.4 99 12.24 14.2 26 32 1019.3 2.6 27.4 32.2 55.3 145.8 149.2 516.0
31/08 17:00 14.6 99 12.39 14.4 24 30 1018.8 2.6 27.7 32.4 55.8 147.1 151.0 522.2
31/08 16:50 14.8 99 12.54 14.6 24 32 1018.7 2.4 28.0 32.6 56.4 148.5 152.8 528.6
31/08 16:40 14.7 100 12.59 14.7 26 32 1018.6 2.4 28.1 32.7 56.7 149.3 153.7 531.9
31/08 16:30 14.9 100 12.74 14.9 26 33 1018.4 2.4 28.4 32.9 57.2 150.7 155.6 538.3
31/08 16:20 15 100 12.82 15 26 35 1018.2 2.4 28.6 33.0 57.5 151.5 156.5 541.7
31/08 16:10 15.4 100 13.14 15.4 19 26 1018.1 2.4 29.2 33.4 58.6 154.6 160.5 555.6
31/08 16:00 15.7 100 13.38 15.7 19 26 1017.9 2.2 29.7 33.7 59.5 156.9 163.5 565.9
31/08 15:50 15.8 100 13.46 15.8 22 30 1017.7 2 29.9 33.8 59.8 157.7 164.4 569.3
31/08 15:40 16 100 13.62 16 22 30 1017.6 1.4 30.2 34.1 60.4 159.2 166.4 576.2
31/08 15:30 16 99 13.49 15.8 22 30 1017.6 1.2 29.9 33.8 59.8 157.6 164.4 569.3
31/08 15:20 16.4 98 13.68 16.1 20 26 1017.6 1 30.3 34.0 60.3 159.1 166.4 576.3
31/08 15:10 16.5 99 13.9 16.3 17 30 1017.3 0.8 30.8 34.4 61.2 161.6 169.5 587.1
31/08 15:00 16 94 12.81 15 28 44 1017.5 0.8 28.5 32.6 56.6 149.3 154.2 533.8
31/08 14:50 18.1 77 11.9 14 26 35 1017.2 0.6 26.4 30.2 51.2 134.8 137.1 474.3
31/08 14:40 18.3 76 11.88 14 28 37 1017.2 0.6 26.3 30.1 50.9 134.2 136.4 472.1
31/08 14:30 18.3 78 12.19 14.4 28 39 1017.2 0.6 27.0 30.6 52.3 137.7 140.8 487.2
31/08 14:20 18.3 76 11.88 14 26 39 1017.2 0.6 26.3 30.1 50.9 134.2 136.4 472.1
31/08 14:10 17.8 78 11.84 13.9 28 37 1017.2 0.6 26.3 30.2 51.1 134.6 136.8 473.2
31/08 14:00 18.5 73 11.55 13.6 28 37 1017.1 0.6 25.6 29.4 49.4 130.1 131.5 454.9
31/08 13:50 18.8 71 11.43 13.4 28 39 1017.1 0.6 25.3 29.1 48.7 128.3 129.4 447.4
31/08 13:40 19.6 66 11.14 13.1 32 41 1017 0.6 24.7 28.4 47.1 123.8 124.1 429.3
31/08 13:30 19.6 64 10.8 12.6 32 39 1016.9 0.6 24.0 27.8 45.7 120.2 119.6 413.5
31/08 13:20 20.3 69 12.13 14.4 28 39 1017 0.6 26.7 29.8 50.7 133.5 136.3 471.9
31/08 13:10 18.8 66 10.63 12.3 26 39 1017.1 0.6 23.6 27.8 45.5 119.6 118.6 409.9
31/08 13:00 18.9 71 11.5 13.5 26 35 1017.2 0.6 25.5 29.2 49.0 128.9 130.2 450.2

Last Refresh: 01-Sep-2026 07:17:31

Bureau of Meteorology